Terminal Aerodrome Forecast
Issued by NWS

Home | Current Version | Previous Version | Text Only | Print | Product List | Glossary On
Versions: 1 2 3 4 5 6 7 8 9 10 11 12 13 14 15 16 17 18 19 20 21 22 23 24 25 26 27 28 29 30 31 32 33 34 35 36 37 38 39 40 41 42 43 44 45 46 47 48 49 50
000
FTUS45 KBOU 301139
TAFBJC
TAF
KBJC 301139Z 3012/0112 26015G28KT P6SM SKC
     FM301700 28014KT P6SM FEW140 SCT220
     FM302200 30011KT P6SM SCT090 SCT130
     FM010000 34008KT P6SM SCT070 BKN100
     FM010500 24008KT P6SM SCT090 BKN130
     FM011000 18007KT P6SM SCT130 BKN200=

USA.gov is the U.S. government's official web portal to all federal, state and local government web resources and services.